createdAt,value
2022-09-20T00:01:30.191Z,101153.34
2022-09-20T00:04:00.540Z,101148.78
2022-09-20T00:06:31.263Z,101156.41
2022-09-20T00:08:59.499Z,101157.13
2022-09-20T00:11:30.391Z,101156.41
2022-09-20T00:13:59.595Z,101158.22
2022-09-20T00:16:33.759Z,101163.69
2022-09-20T00:19:05.446Z,101155.78
2022-09-20T00:21:34.844Z,101158.31
2022-09-20T00:24:02.279Z,101160.94
2022-09-20T00:26:29.390Z,101163.09
2022-09-20T00:28:58.513Z,101157.69
2022-09-20T00:31:25.406Z,101161.50
2022-09-20T00:34:17.066Z,101160.94
2022-09-20T00:36:45.134Z,101165.56
2022-09-20T00:39:17.144Z,101163.09
2022-09-20T00:41:44.299Z,101168.81
2022-09-20T00:45:00.858Z,101165.94
2022-09-20T00:47:42.501Z,101167.97
2022-09-20T00:50:33.795Z,101166.56
2022-09-20T00:53:27.859Z,101166.09
2022-09-20T00:56:02.493Z,101170.34
2022-09-20T00:58:34.285Z,101162.13
2022-09-20T01:01:01.363Z,101162.72
2022-09-20T01:03:31.395Z,101162.50
2022-09-20T01:06:03.199Z,101159.50
2022-09-20T01:08:31.610Z,101167.38
2022-09-20T01:10:58.762Z,101158.78
2022-09-20T01:13:25.664Z,101163.44
2022-09-20T01:15:53.300Z,101165.25
2022-09-20T01:18:22.106Z,101170.47
2022-09-20T01:20:50.345Z,101175.94
2022-09-20T01:23:52.027Z,101169.97
2022-09-20T01:26:40.436Z,101172.13
2022-09-20T01:29:34.228Z,101172.56
2022-09-20T01:32:07.765Z,101173.66
2022-09-20T01:34:37.969Z,101174.13
2022-09-20T01:37:22.949Z,101171.53
2022-09-20T01:40:04.475Z,101176.00
2022-09-20T01:42:38.953Z,101165.19
2022-09-20T01:45:27.809Z,101160.50
2022-09-20T01:48:38.767Z,101152.16
2022-09-20T01:51:29.323Z,101155.84
2022-09-20T01:55:07.131Z,101155.25
2022-09-20T01:58:18.044Z,101161.88
2022-09-20T02:01:17.001Z,101157.56
2022-09-20T02:04:17.219Z,101167.25
2022-09-20T02:07:06.770Z,101165.47
2022-09-20T02:10:03.957Z,101159.84
2022-09-20T02:13:07.166Z,101162.13
2022-09-20T02:16:05.468Z,101165.34
2022-09-20T02:19:05.571Z,101164.03
2022-09-20T02:21:59.957Z,101162.97
2022-09-20T02:24:44.324Z,101167.28
2022-09-20T02:27:24.386Z,101167.28
2022-09-20T02:30:44.724Z,101164.81
2022-09-20T02:33:36.138Z,101168.00
2022-09-20T02:36:29.100Z,101169.31
2022-09-20T02:39:20.832Z,101168.81
2022-09-20T02:42:17.749Z,101167.38
2022-09-20T02:45:06.011Z,101164.03
2022-09-20T02:47:40.648Z,101171.78
2022-09-20T02:50:29.662Z,101170.34
2022-09-20T02:53:45.949Z,101171.84
2022-09-20T02:56:27.732Z,101172.47
2022-09-20T02:59:29.452Z,101173.78
2022-09-20T03:02:30.490Z,101177.13
2022-09-20T03:05:24.351Z,101188.25
2022-09-20T03:08:21.898Z,101181.84
2022-09-20T03:11:28.432Z,101181.06
2022-09-20T03:14:24.170Z,101186.41
2022-09-20T03:17:18.386Z,101177.09
2022-09-20T03:20:19.985Z,101184.13
2022-09-20T03:23:04.401Z,101188.31
2022-09-20T03:25:55.563Z,101179.50
2022-09-20T03:28:38.880Z,101187.91
2022-09-20T03:31:40.009Z,101192.13
2022-09-20T03:34:39.877Z,101198.25
2022-09-20T03:38:05.094Z,101194.69
2022-09-20T03:41:09.342Z,101199.81
2022-09-20T03:43:57.129Z,101194.47
2022-09-20T03:46:30.103Z,101192.41
2022-09-20T03:49:32.238Z,101188.84
2022-09-20T03:52:45.662Z,101189.50
2022-09-20T03:55:15.289Z,101196.50
2022-09-20T03:58:00.919Z,101201.44
2022-09-20T04:01:00.347Z,101204.56
2022-09-20T04:03:49.386Z,101207.28
2022-09-20T04:06:44.678Z,101211.25
2022-09-20T04:10:03.869Z,101194.16
2022-09-20T04:12:45.469Z,101200.88
2022-09-20T04:16:09.691Z,101198.81
2022-09-20T04:18:56.555Z,101193.94
2022-09-20T04:21:36.163Z,101191.56
2022-09-20T04:24:25.017Z,101199.41
2022-09-20T04:27:19.764Z,101206.09
2022-09-20T04:30:05.609Z,101202.63
2022-09-20T04:33:11.551Z,101206.22
2022-09-20T04:36:21.844Z,101211.31
2022-09-20T04:39:03.334Z,101208.81
2022-09-20T04:42:08.551Z,101209.47
2022-09-20T04:44:55.940Z,101212.22
2022-09-20T04:47:47.538Z,101214.75
2022-09-20T04:51:05.234Z,101211.59
2022-09-20T04:54:22.171Z,101211.28
2022-09-20T04:57:24.777Z,101217.88
2022-09-20T04:59:54.770Z,101217.38
2022-09-20T05:02:52.542Z,101220.16
2022-09-20T05:05:46.429Z,101224.13
2022-09-20T05:08:58.747Z,101229.59
2022-09-20T05:11:52.728Z,101237.94
2022-09-20T05:14:47.343Z,101239.50
2022-09-20T05:17:41.500Z,101240.25
2022-09-20T05:20:24.743Z,101243.91
2022-09-20T05:23:23.829Z,101245.72
2022-09-20T05:26:03.628Z,101251.63
2022-09-20T05:28:56.654Z,101246.31
2022-09-20T05:31:30.789Z,101253.53
2022-09-20T05:34:32.051Z,101250.91
2022-09-20T05:37:30.688Z,101252.69
2022-09-20T05:41:05.157Z,101251.72
2022-09-20T05:43:52.162Z,101251.28
2022-09-20T05:46:45.052Z,101255.47
2022-09-20T05:49:50.627Z,101257.31
2022-09-20T05:52:53.551Z,101265.53
2022-09-20T05:55:46.911Z,101259.13
2022-09-20T05:58:46.683Z,101263.38
2022-09-20T06:01:34.423Z,101269.94
2022-09-20T06:04:14.765Z,101268.66
2022-09-20T06:07:06.236Z,101272.47
2022-09-20T06:10:05.598Z,101272.06
2022-09-20T06:13:11.665Z,101272.31
2022-09-20T06:16:35.551Z,101272.19
2022-09-20T06:19:17.054Z,101263.84
2022-09-20T06:21:51.699Z,101268.97
2022-09-20T06:24:33.300Z,101270.56
2022-09-20T06:27:06.337Z,101280.75
2022-09-20T06:29:38.592Z,101280.03
2022-09-20T06:32:05.484Z,101284.56
2022-09-20T06:34:32.631Z,101279.66
2022-09-20T06:37:44.342Z,101286.94
2022-09-20T06:40:52.636Z,101274.44
2022-09-20T06:43:19.532Z,101281.72
2022-09-20T06:45:47.916Z,101290.09
2022-09-20T06:48:15.552Z,101286.22
2022-09-20T06:50:45.653Z,101286.38
2022-09-20T06:53:19.093Z,101285.69
2022-09-20T06:55:46.960Z,101285.06
2022-09-20T06:58:13.871Z,101280.50
2022-09-20T07:00:40.991Z,101286.59
2022-09-20T07:03:08.463Z,101282.31
2022-09-20T07:05:36.203Z,101283.03
2022-09-20T07:08:03.122Z,101281.72
2022-09-20T07:10:30.373Z,101278.72
2022-09-20T07:13:00.274Z,101286.53
2022-09-20T07:15:28.719Z,101283.50
2022-09-20T07:17:56.041Z,101291.50
2022-09-20T07:20:23.617Z,101301.34
2022-09-20T07:22:50.690Z,101304.69
2022-09-20T07:25:18.248Z,101301.69
2022-09-20T07:27:46.547Z,101308.50
2022-09-20T07:30:14.881Z,101299.44
2022-09-20T07:32:41.983Z,101313.03
2022-09-20T07:35:12.701Z,101303.34
2022-09-20T07:37:42.582Z,101298.88
2022-09-20T07:40:11.441Z,101298.25
2022-09-20T07:42:38.289Z,101314.28
2022-09-20T07:45:06.030Z,101306.22
2022-09-20T07:47:35.190Z,101310.38
2022-09-20T07:50:03.533Z,101314.88
2022-09-20T07:52:30.522Z,101312.00
2022-09-20T07:54:57.477Z,101315.13
2022-09-20T07:57:24.366Z,101322.69
2022-09-20T07:59:51.194Z,101321.06
2022-09-20T08:02:18.128Z,101319.41
2022-09-20T08:04:44.954Z,101325.53
2022-09-20T08:07:12.655Z,101321.97
2022-09-20T08:09:39.560Z,101326.94
2022-09-20T08:14:55.456Z,101323.19
2022-09-20T08:17:24.732Z,101323.03
2022-09-20T08:19:53.359Z,101328.78
2022-09-20T08:22:20.193Z,101330.22
2022-09-20T08:24:47.074Z,101328.47
2022-09-20T08:27:13.896Z,101334.75
2022-09-20T08:29:40.803Z,101326.19
2022-09-20T08:32:07.693Z,101334.44
2022-09-20T08:34:34.473Z,101333.91
2022-09-20T08:37:01.460Z,101337.19
2022-09-20T08:42:43.818Z,101330.81
2022-09-20T08:45:23.375Z,101333.03
2022-09-20T08:48:05.513Z,101333.47
2022-09-20T08:50:34.149Z,101338.09
2022-09-20T08:53:04.845Z,101332.50
2022-09-20T08:55:40.169Z,101337.50
2022-09-20T08:58:11.203Z,101338.47
2022-09-20T09:00:46.669Z,101335.88
2022-09-20T09:03:17.114Z,101339.16
2022-09-20T09:05:47.650Z,101341.41
2022-09-20T09:08:22.303Z,101339.50
2022-09-20T09:10:54.592Z,101341.38
2022-09-20T09:14:30.599Z,101342.13
2022-09-20T09:16:58.002Z,101341.47
2022-09-20T09:19:51.460Z,101339.91
2022-09-20T09:22:50.823Z,101331.00
2022-09-20T09:25:17.490Z,101330.81
2022-09-20T09:27:52.987Z,101325.47
2022-09-20T09:30:31.207Z,101331.06
2022-09-20T09:33:28.184Z,101335.44
2022-09-20T09:36:03.831Z,101335.56
2022-09-20T09:38:34.104Z,101325.41
2022-09-20T09:41:29.754Z,101323.47
2022-09-20T09:44:10.866Z,101318.63
2022-09-20T09:46:40.129Z,101321.41
2022-09-20T09:49:21.856Z,101320.63
2022-09-20T09:51:57.323Z,101325.88
2022-09-20T09:54:26.937Z,101332.44
2022-09-20T09:57:01.703Z,101324.97
2022-09-20T09:59:58.575Z,101315.81
2022-09-20T10:02:51.482Z,101307.69
2022-09-20T10:05:25.170Z,101308.53
2022-09-20T10:07:54.995Z,101303.13
2022-09-20T10:11:18.432Z,101300.47
2022-09-20T10:14:22.702Z,101303.94
2022-09-20T10:17:10.167Z,101294.91
2022-09-20T10:20:19.931Z,101300.34
2022-09-20T10:23:26.810Z,101293.94
2022-09-20T10:26:16.154Z,101298.41
2022-09-20T10:29:03.878Z,101299.63
2022-09-20T10:31:47.205Z,101301.47
2022-09-20T10:34:54.793Z,101299.09
2022-09-20T10:38:10.365Z,101297.47
2022-09-20T10:41:26.536Z,101293.03
2022-09-20T10:43:53.279Z,101294.56
2022-09-20T10:46:38.475Z,101298.38
2022-09-20T10:49:28.962Z,101291.47
2022-09-20T10:52:08.276Z,101300.63
2022-09-20T10:54:53.764Z,101317.00
2022-09-20T10:57:45.905Z,101315.91
2022-09-20T11:00:25.714Z,101311.47
2022-09-20T11:03:29.938Z,101310.53
2022-09-20T11:06:11.457Z,101306.28
2022-09-20T11:08:40.000Z,101320.25
2022-09-20T11:11:24.258Z,101318.59
2022-09-20T11:14:31.462Z,101326.41
2022-09-20T11:17:06.990Z,101333.34
2022-09-20T11:20:06.177Z,101327.38
2022-09-20T11:22:49.564Z,101332.84
2022-09-20T11:25:23.974Z,101334.09
2022-09-20T11:28:09.642Z,101329.31
2022-09-20T11:31:09.112Z,101334.06
2022-09-20T11:34:29.728Z,101324.53
2022-09-20T11:37:01.235Z,101334.38
2022-09-20T11:39:55.017Z,101317.63
2022-09-20T11:42:28.102Z,101317.88
2022-09-20T11:44:55.872Z,101318.69
2022-09-20T11:47:53.396Z,101323.72
2022-09-20T11:51:13.547Z,101320.09
2022-09-20T11:54:12.571Z,101328.06
2022-09-20T11:56:39.900Z,101322.78
2022-09-20T11:59:34.247Z,101335.50
2022-09-20T12:02:05.357Z,101341.09
2022-09-20T12:04:36.368Z,101350.84
2022-09-20T12:07:36.074Z,101334.13
2022-09-20T12:10:26.369Z,101326.09
2022-09-20T12:13:08.272Z,101328.84
2022-09-20T12:15:44.211Z,101333.28
2022-09-20T12:18:36.380Z,101325.81
2022-09-20T12:21:16.773Z,101326.06
2022-09-20T12:24:00.378Z,101325.81
2022-09-20T12:26:32.569Z,101311.94
2022-09-20T12:29:25.093Z,101304.75
2022-09-20T12:31:56.104Z,101312.78
2022-09-20T12:34:26.011Z,101313.75
2022-09-20T12:36:55.924Z,101309.09
2022-09-20T12:39:29.981Z,101304.31
2022-09-20T12:42:11.414Z,101292.09
2022-09-20T12:44:50.194Z,101294.03
2022-09-20T12:47:30.579Z,101294.84
2022-09-20T12:50:18.469Z,101291.34
2022-09-20T12:52:56.972Z,101292.31
2022-09-20T12:55:32.733Z,101298.81
2022-09-20T12:58:14.753Z,101294.00
2022-09-20T13:01:03.645Z,101303.78
2022-09-20T13:03:48.105Z,101300.84
2022-09-20T13:06:16.692Z,101307.78
2022-09-20T13:08:48.230Z,101295.38
2022-09-20T13:11:20.077Z,101300.94
2022-09-20T13:14:08.191Z,101309.41
2022-09-20T13:16:50.898Z,101302.25
2022-09-20T13:19:31.477Z,101303.16
2022-09-20T13:22:05.656Z,101311.75
2022-09-20T13:24:41.608Z,101311.94
2022-09-20T13:27:19.233Z,101303.50
2022-09-20T13:29:46.590Z,101308.19
2022-09-20T13:32:29.162Z,101308.34
2022-09-20T13:35:32.479Z,101313.72
2022-09-20T13:38:03.060Z,101310.16
2022-09-20T13:40:43.638Z,101308.06
2022-09-20T13:43:41.062Z,101307.66
2022-09-20T13:47:19.659Z,101305.03
2022-09-20T13:49:46.532Z,101301.66
2022-09-20T13:52:27.678Z,101306.09
2022-09-20T13:54:55.978Z,101306.94
2022-09-20T13:57:28.161Z,101300.84
2022-09-20T13:59:57.882Z,101303.06
2022-09-20T14:02:32.066Z,101307.09
2022-09-20T14:05:05.797Z,101297.50
2022-09-20T14:07:33.610Z,101299.03
2022-09-20T14:10:00.943Z,101296.25
2022-09-20T14:12:28.503Z,101295.81
2022-09-20T14:14:56.031Z,101291.66
2022-09-20T14:17:24.595Z,101284.16
2022-09-20T14:19:54.480Z,101285.94
2022-09-20T14:22:31.498Z,101287.47
2022-09-20T14:25:19.790Z,101283.00
2022-09-20T14:27:46.693Z,101274.41
2022-09-20T14:30:32.277Z,101283.19
2022-09-20T14:32:59.659Z,101279.41
2022-09-20T14:35:27.131Z,101279.56
2022-09-20T14:38:08.557Z,101273.75
2022-09-20T14:40:47.824Z,101276.91
2022-09-20T14:43:31.625Z,101274.16
2022-09-20T14:46:19.051Z,101270.84
2022-09-20T14:48:45.938Z,101267.25
2022-09-20T14:51:16.142Z,101272.47
2022-09-20T14:53:48.465Z,101272.78
2022-09-20T14:56:19.791Z,101271.25
2022-09-20T14:59:13.857Z,101272.47
2022-09-20T15:01:54.369Z,101268.59
2022-09-20T15:04:23.830Z,101270.53
2022-09-20T15:06:51.471Z,101275.13
2022-09-20T15:09:20.868Z,101269.97
2022-09-20T15:12:19.436Z,101268.75
2022-09-20T15:14:46.901Z,101262.50
2022-09-20T15:17:19.747Z,101258.34
2022-09-20T15:19:47.863Z,101259.88
2022-09-20T15:22:15.486Z,101265.81
2022-09-20T15:24:42.904Z,101261.25
2022-09-20T15:27:13.219Z,101271.66
2022-09-20T15:29:40.625Z,101266.69
2022-09-20T15:32:10.374Z,101268.38
2022-09-20T15:34:37.356Z,101267.78
2022-09-20T15:37:04.795Z,101267.38
2022-09-20T15:39:31.585Z,101262.94
2022-09-20T15:41:58.377Z,101270.72
2022-09-20T15:44:25.479Z,101272.41
2022-09-20T15:46:53.566Z,101264.88
2022-09-20T15:49:21.671Z,101270.94
2022-09-20T15:51:48.554Z,101266.28
2022-09-20T15:54:15.456Z,101269.31
2022-09-20T15:56:42.431Z,101267.81
2022-09-20T15:59:11.430Z,101263.06
2022-09-20T16:01:44.718Z,101266.78
2022-09-20T16:04:18.523Z,101261.38
2022-09-20T16:06:49.334Z,101263.63
2022-09-20T16:09:16.344Z,101267.91
2022-09-20T16:11:43.340Z,101254.97
2022-09-20T16:14:10.142Z,101265.53
2022-09-20T16:16:40.440Z,101270.53
2022-09-20T16:19:23.499Z,101262.97
2022-09-20T16:21:58.849Z,101272.22
2022-09-20T16:24:29.860Z,101269.19
2022-09-20T16:26:58.001Z,101269.25
2022-09-20T16:29:25.919Z,101273.22
2022-09-20T16:31:54.331Z,101272.22
2022-09-20T16:34:31.124Z,101276.16
2022-09-20T16:37:16.651Z,101274.81
2022-09-20T16:39:44.616Z,101275.59
2022-09-20T16:42:13.219Z,101284.13
2022-09-20T16:44:42.772Z,101282.19
2022-09-20T16:47:22.002Z,101286.66
2022-09-20T16:49:50.174Z,101279.38
2022-09-20T16:52:17.273Z,101285.13
2022-09-20T16:54:44.504Z,101287.00
2022-09-20T16:57:15.575Z,101288.94
2022-09-20T16:59:42.811Z,101296.38
2022-09-20T17:02:12.174Z,101294.66
2022-09-20T17:04:39.194Z,101296.06
2022-09-20T17:07:06.044Z,101306.97
2022-09-20T17:09:32.932Z,101300.22
2022-09-20T17:12:01.124Z,101310.81
2022-09-20T17:14:27.934Z,101313.34
2022-09-20T17:16:56.408Z,101312.75
2022-09-20T17:19:23.254Z,101312.59
2022-09-20T17:21:51.208Z,101316.72
2022-09-20T17:24:22.670Z,101315.09
2022-09-20T17:26:51.071Z,101313.81
2022-09-20T17:29:19.743Z,101318.94
2022-09-20T17:31:55.076Z,101312.91
2022-09-20T17:34:23.782Z,101318.03
2022-09-20T17:36:50.902Z,101311.31
2022-09-20T17:39:18.400Z,101320.28
2022-09-20T17:41:47.878Z,101315.06
2022-09-20T17:44:15.765Z,101327.06
2022-09-20T17:46:45.707Z,101324.22
2022-09-20T17:49:15.726Z,101325.66
2022-09-20T17:51:46.807Z,101321.81
2022-09-20T17:54:15.305Z,101318.25
2022-09-20T17:56:44.150Z,101334.25
2022-09-20T17:59:12.515Z,101332.81
2022-09-20T18:01:40.350Z,101342.38
2022-09-20T18:04:08.564Z,101343.09
2022-09-20T18:06:42.401Z,101348.94
2022-09-20T18:09:14.021Z,101342.50
2022-09-20T18:11:50.587Z,101352.41
2022-09-20T18:14:23.295Z,101348.56
2022-09-20T18:17:00.863Z,101360.53
2022-09-20T18:19:32.805Z,101358.84
2022-09-20T18:22:01.494Z,101359.47
2022-09-20T18:24:28.476Z,101363.63
2022-09-20T18:26:55.668Z,101364.72
2022-09-20T18:29:23.546Z,101377.47
2022-09-20T18:31:54.226Z,101368.78
2022-09-20T18:34:31.976Z,101371.88
2022-09-20T18:37:01.073Z,101377.47
2022-09-20T18:39:32.425Z,101377.00
2022-09-20T18:41:59.986Z,101387.38
2022-09-20T18:44:33.917Z,101387.03
2022-09-20T18:47:03.347Z,101392.03
2022-09-20T18:49:30.756Z,101394.03
2022-09-20T18:51:57.960Z,101392.50
2022-09-20T18:54:24.920Z,101393.47
2022-09-20T18:56:51.973Z,101400.16
2022-09-20T18:59:22.452Z,101407.81
2022-09-20T19:01:55.105Z,101408.88
2022-09-20T19:04:51.765Z,101402.41
2022-09-20T19:07:48.617Z,101406.84
2022-09-20T19:10:49.410Z,101410.88
2022-09-20T19:13:32.387Z,101411.56
2022-09-20T19:16:15.614Z,101413.63
2022-09-20T19:19:02.530Z,101412.78
2022-09-20T19:21:47.368Z,101419.69
2022-09-20T19:24:56.621Z,101438.03
2022-09-20T19:27:26.248Z,101427.94
2022-09-20T19:29:53.921Z,101435.41
2022-09-20T19:32:24.156Z,101434.03
2022-09-20T19:34:55.801Z,101439.69
2022-09-20T19:37:52.595Z,101445.91
2022-09-20T19:40:38.656Z,101449.56
2022-09-20T19:43:35.001Z,101444.09
2022-09-20T19:46:49.696Z,101444.03
2022-09-20T19:49:23.849Z,101446.84
2022-09-20T19:51:51.027Z,101449.34
2022-09-20T19:54:18.724Z,101450.00
2022-09-20T19:56:53.129Z,101447.03
2022-09-20T19:59:25.914Z,101454.72
2022-09-20T20:01:54.289Z,101454.31
2022-09-20T20:04:22.062Z,101450.25
2022-09-20T20:07:22.251Z,101453.47
2022-09-20T20:10:12.860Z,101452.88
2022-09-20T20:13:48.654Z,101460.88
2022-09-20T20:16:25.107Z,101460.81
2022-09-20T20:19:11.301Z,101460.22
2022-09-20T20:21:47.895Z,101462.72
2022-09-20T20:24:51.769Z,101461.03
2022-09-20T20:27:21.909Z,101458.78
2022-09-20T20:29:49.421Z,101459.19
2022-09-20T20:32:17.247Z,101463.25
2022-09-20T20:34:44.244Z,101467.72
2022-09-20T20:37:11.050Z,101465.00
2022-09-20T20:39:37.855Z,101472.03
2022-09-20T20:42:06.238Z,101470.59
2022-09-20T20:44:35.764Z,101476.09
2022-09-20T20:47:05.740Z,101475.66
2022-09-20T20:49:32.907Z,101475.16
2022-09-20T20:52:04.226Z,101476.31
2022-09-20T20:54:32.164Z,101479.44
2022-09-20T20:56:59.405Z,101476.50
2022-09-20T20:59:26.506Z,101483.91
2022-09-20T21:01:53.418Z,101484.75
2022-09-20T21:04:21.508Z,101484.81
2022-09-20T21:06:48.318Z,101490.13
2022-09-20T21:09:15.315Z,101493.84
2022-09-20T21:11:46.578Z,101486.72
2022-09-20T21:14:13.418Z,101481.78
2022-09-20T21:16:43.115Z,101478.78
2022-09-20T21:19:15.450Z,101486.47
2022-09-20T21:21:44.860Z,101487.97
2022-09-20T21:24:15.152Z,101482.06
2022-09-20T21:26:41.993Z,101489.41
2022-09-20T21:29:11.679Z,101490.06
2022-09-20T21:31:41.047Z,101487.44
2022-09-20T21:34:10.156Z,101485.56
2022-09-20T21:36:38.787Z,101485.59
2022-09-20T21:39:06.283Z,101481.06
2022-09-20T21:41:40.029Z,101487.69
2022-09-20T21:44:07.836Z,101482.13
2022-09-20T21:46:43.452Z,101492.09
2022-09-20T21:49:13.026Z,101483.50
2022-09-20T21:51:42.569Z,101483.59
2022-09-20T21:54:09.664Z,101488.50
2022-09-20T21:56:38.864Z,101488.81
2022-09-20T21:59:07.556Z,101497.28
2022-09-20T22:01:38.201Z,101491.84
2022-09-20T22:04:11.149Z,101497.00
2022-09-20T22:06:43.694Z,101488.59
2022-09-20T22:09:16.370Z,101489.13
2022-09-20T22:11:48.649Z,101502.41
2022-09-20T22:14:18.460Z,101497.28
2022-09-20T22:16:46.987Z,101497.72
2022-09-20T22:19:16.896Z,101494.34
2022-09-20T22:21:46.764Z,101489.59
2022-09-20T22:24:14.997Z,101489.81
2022-09-20T22:26:48.899Z,101489.56
2022-09-20T22:29:16.432Z,101491.72
2022-09-20T22:31:45.829Z,101486.34
2022-09-20T22:34:24.149Z,101490.00
2022-09-20T22:36:52.062Z,101489.50
2022-09-20T22:39:18.871Z,101495.91
2022-09-20T22:41:47.718Z,101496.94
2022-09-20T22:44:14.862Z,101494.41
2022-09-20T22:46:41.747Z,101492.78
2022-09-20T22:49:09.588Z,101499.16
2022-09-20T22:51:37.552Z,101500.00
2022-09-20T22:54:07.970Z,101500.41
2022-09-20T22:56:36.212Z,101505.53
2022-09-20T22:59:09.407Z,101506.84
2022-09-20T23:01:45.547Z,101499.56
2022-09-20T23:04:16.623Z,101498.22
2022-09-20T23:06:54.449Z,101498.41
2022-09-20T23:09:24.289Z,101499.41
2022-09-20T23:11:51.524Z,101502.38
2022-09-20T23:14:22.187Z,101508.81
2022-09-20T23:16:50.052Z,101501.59
2022-09-20T23:19:17.384Z,101499.47
2022-09-20T23:21:45.021Z,101498.63
2022-09-20T23:24:14.224Z,101498.16
2022-09-20T23:26:43.143Z,101494.66
2022-09-20T23:31:51.368Z,101494.50
2022-09-20T23:34:18.353Z,101501.00
2022-09-20T23:36:46.263Z,101495.34
2022-09-20T23:39:14.933Z,101505.91
2022-09-20T23:41:43.239Z,101502.78
2022-09-20T23:44:12.904Z,101510.28
2022-09-20T23:46:39.882Z,101500.28
2022-09-20T23:49:09.155Z,101501.09
2022-09-20T23:51:36.277Z,101500.91
2022-09-20T23:54:03.858Z,101501.47
2022-09-20T23:56:31.190Z,101501.47
2022-09-20T23:58:58.010Z,101495.13
